• Join FlightAware (Why Join?)
  • Login
  • US Flag 
Gobble Gobble! 
08:48AM EST


 

Airport Tracker/Info


-or-


 

Live Flight TrackerFlight Track Log ✈ UCA5011 ✈ 07-May-2013 ✈ KCRW - KIAD

Flight Track Log - Related Links

Times and Time Zones

All times are in EDT time to prevent confusion due to time zone crossing. See the UCA5011 flight status page for this flight to view local times or setup timezone preferences in your user account.

Time Position Orientation Groundspeed Altitude Reporting Facility
EDT Latitude Longitude Course Direction KTS MPH feet Rate Location/Type
10:20AM 38.2997 -81.5961 81° East 176 203 3,100  Level Indianapolis Center
10:21AM 38.2825 -81.5428 112° Southeast 190 219 4,300 1,260 Climbing Indianapolis Center
10:22AM 38.3097 -81.4869 58° Northeast 186 214 5,800 1,440 Climbing Indianapolis Center
10:23AM 38.3347 -81.4300 61° Northeast 183 211 7,300 1,440 Climbing Indianapolis Center
10:24AM 38.3592 -81.3728 61° Northeast 183 211 8,800 1,500 Climbing Indianapolis Center
10:25AM 38.3624 -81.4846 81° East  Level FlightAware Approximate
10:25AM 38.3894 -81.3025 61° Northeast 189 217 10,500  Level Indianapolis Center
10:26AM 38.3983 -81.2403 80° East 182 209 11,900 1,380 Climbing Indianapolis Center
10:27AM 38.4022 -81.1781 85° East 177 204 13,400 1,200 Climbing Indianapolis Center
10:28AM 38.4092 -81.1178 82° East 174 200 14,500 1,080 Climbing Indianapolis Center
10:30AM 38.4121 -81.0407 87° East  Level FlightAware Approximate
10:30AM 38.4192 -80.9908 87° East 181 208 16,900  Level Indianapolis Center
10:31AM 38.4261 -80.9064 84° East 203 234 17,000  Climbing Indianapolis Center
10:33AM 38.4331 -80.8231 84° East 233 268 17,000 -60 Level Indianapolis Center
10:34AM 38.4400 -80.7392 84° East 237 273 16,900  Descending Indianapolis Center
10:35AM 38.4475 -80.6567 83° East 236 272 17,000  Climbing Indianapolis Center
10:36AM 38.4542 -80.5711 84° East 241 277 16,900  Descending Indianapolis Center
10:37AM 38.4608 -80.4856 84° East 244 281 17,000  Climbing Indianapolis Center
10:38AM 38.4700 -80.3858 83° East 237 273 17,000 -60 Level Indianapolis Center
10:39AM 38.4758 -80.3008 85° East 242 278 16,900  Descending Indianapolis Center
10:40AM 38.4850 -80.2069 83° East 232 267 17,100 60 Climbing Washington Center
10:41AM 38.4903 -80.1225 85° East 232 267 17,100 -60 Level Washington Center
10:42AM 38.4953 -80.0458 85° East 232 267 17,000 -120 Descending Washington Center
10:43AM 38.5019 -79.9744 83° East 227 261 16,900 -60 Descending Washington Center
10:44AM 38.5092 -79.8900 84° East 227 261 16,900  Level Washington Center
10:45AM 38.5164 -79.8083 84° East 232 267 16,900  Level Washington Center
10:46AM 38.5233 -79.7236 84° East 232 267 16,900  Level Washington Center
10:47AM 38.5286 -79.6311 86° East 232 267 16,900  Level Washington Center
10:48AM 38.5333 -79.5492 86° East 232 267 17,000  Climbing Washington Center
10:49AM 38.5403 -79.4672 84° East 232 267 17,000 -360 Level Washington Center
10:50AM 38.5472 -79.3797 84° East 232 267 16,300 -900 Descending Washington Center
10:51AM 38.5522 -79.2900 86° East 243 280 15,300 -1,080 Descending Washington Center
10:52AM 38.5592 -79.1947 85° East 256 295 14,200 -1,080 Descending Washington Center
10:53AM 38.5661 -79.1019 85° East 261 300 13,200 -1,020 Descending Washington Center
10:54AM 38.5728 -79.0175 84° East 255 293 12,200 -1,020 Descending Washington Center
10:55AM 38.5750 -78.9325 88° East 243 280 11,200 -1,080 Descending Washington Center
10:56AM 38.5794 -78.8556 86° East 233 268 10,100 -1,080 Descending Washington Center
10:57AM 38.5875 -78.7789 82° East 222 255 9,100 -960 Descending Washington Center
10:58AM 38.5917 -78.7075 86° East 217 250 8,200 -780 Descending Washington Center
10:59AM 38.5953 -78.6439 86° East 196 226 7,600 -540 Descending Washington Center
11:00AM 38.5992 -78.5775 86° East 191 220 7,200 -300 Descending Washington Center
11:01AM 38.6419 -78.5261 43° Northeast 180 207 7,000 -120 Descending Washington Center
11:02AM 38.6622 -78.4658 67° East 180 207 7,000  Level Washington Center
11:03AM 38.6806 -78.3972 71° East 180 207 7,000  Level Washington Center
11:04AM 38.7233 -78.3483 42° Northeast 186 214 7,000 -120 Level Washington Center
11:05AM 38.7725 -78.2969 39° Northeast 206 237 6,800 -540 Descending Washington Center
11:06AM 38.8258 -78.2378 41° Northeast 232 267 6,000 -420 Descending Washington Center
11:07AM 38.8647 -78.1750 51° Northeast 237 273 6,000  Level Washington Center
11:08AM 38.8831 -78.0958 73° East 221 254 6,000  Level Washington Center
11:09AM 38.9014 -78.0217 72° East 221 254 6,000  Level Washington Center
11:10AM 38.9197 -77.9422 73° East 221 254 6,000  Level Washington Center
11:12AM 39.0167 -77.8167 45° Northeast 230 265 6,000  Level Potomac TRACON
11:13AM 39.0000 -77.7500 108° East 209 241 6,000  Level Potomac TRACON
11:14AM 38.9500 -77.7000 142° Southeast 215 247 6,000 -180 Level Potomac TRACON
11:15AM 38.9833 -77.6333 57° Northeast 226 260 5,700 -540 Descending Potomac TRACON
11:16AM 39.0333 -77.6000 27° Northeast 224 258 5,000 -420 Descending Potomac TRACON
11:17AM 39.0833 -77.5833 15° North 221 254 5,000  Level Potomac TRACON
11:18AM 39.1500 -77.5667 11° North 240 276 5,000  Level Potomac TRACON
11:19AM 39.2167 -77.5667 360° North 240 276 5,000  Level Potomac TRACON
11:20AM 39.2833 -77.5833 349° North 246 283 5,000  Level Potomac TRACON
11:21AM 39.3333 -77.5833 360° North 212 244 5,000  Level Potomac TRACON
11:22AM 39.3667 -77.5500 38° Northeast 195 224 5,000  Level Potomac TRACON
11:23AM 39.3500 -77.5000 113° Southeast 174 200 5,000  Level Potomac TRACON
11:24AM 39.3000 -77.4833 166° South 176 203 5,000  Level Potomac TRACON
11:25AM 39.2500 -77.4667 166° South 182 209 5,000 -120 Level Potomac TRACON
11:26AM 39.2000 -77.4500 166° South 197 227 4,800 -600 Descending Potomac TRACON
11:27AM 39.1500 -77.4500 180° South 186 214 3,800 -1,020 Descending Potomac TRACON